createdAt,value
2023-03-05T00:00:58.860Z,986.70
2023-03-05T00:01:58.843Z,986.68
2023-03-05T00:02:58.872Z,986.69
2023-03-05T00:03:58.929Z,986.71
2023-03-05T00:04:58.832Z,986.69
2023-03-05T00:05:58.858Z,986.68
2023-03-05T00:06:58.820Z,986.69
2023-03-05T00:07:58.813Z,986.69
2023-03-05T00:08:58.839Z,986.64
2023-03-05T00:09:58.799Z,986.66
2023-03-05T00:10:58.781Z,986.66
2023-03-05T00:11:58.785Z,986.68
2023-03-05T00:12:58.774Z,986.64
2023-03-05T00:14:05.800Z,986.62
2023-03-05T00:14:58.774Z,986.60
2023-03-05T00:15:58.778Z,986.63
2023-03-05T00:16:58.773Z,986.63
2023-03-05T00:17:58.744Z,986.62
2023-03-05T00:18:58.737Z,986.62
2023-03-05T00:19:59.993Z,986.61
2023-03-05T00:20:58.732Z,986.60
2023-03-05T00:21:58.709Z,986.58
2023-03-05T00:22:58.729Z,986.58
2023-03-05T00:23:58.701Z,986.56
2023-03-05T00:24:58.693Z,986.55
2023-03-05T00:25:58.686Z,986.53
2023-03-05T00:26:58.696Z,986.51
2023-03-05T00:27:58.672Z,986.51
2023-03-05T00:28:58.801Z,986.51
2023-03-05T00:29:58.681Z,986.49
2023-03-05T00:30:58.685Z,986.48
2023-03-05T00:31:58.745Z,986.47
2023-03-05T00:32:58.648Z,986.46
2023-03-05T00:33:58.644Z,986.45
2023-03-05T00:34:58.649Z,986.44
2023-03-05T00:35:58.662Z,986.41
2023-03-05T00:36:58.626Z,986.39
2023-03-05T00:37:58.619Z,986.39
2023-03-05T00:38:58.622Z,986.39
2023-03-05T00:39:58.708Z,986.37
2023-03-05T00:40:58.621Z,986.36
2023-03-05T00:41:58.592Z,986.36
2023-03-05T00:42:58.587Z,986.36
2023-03-05T00:43:58.577Z,986.36
2023-03-05T00:44:58.563Z,986.35
2023-03-05T00:45:58.550Z,986.34
2023-03-05T00:46:58.578Z,986.31
2023-03-05T00:47:58.607Z,986.31
2023-03-05T00:48:58.540Z,986.29
2023-03-05T00:49:58.538Z,986.27
2023-03-05T00:50:58.532Z,986.24
2023-03-05T00:51:58.530Z,986.23
2023-03-05T00:52:58.540Z,986.23
2023-03-05T00:53:58.518Z,986.23
2023-03-05T00:54:58.505Z,986.22
2023-03-05T00:55:58.502Z,986.20
2023-03-05T00:56:58.497Z,986.19
2023-03-05T00:57:58.505Z,986.18
2023-03-05T00:58:58.479Z,986.18
2023-03-05T00:59:58.482Z,986.16
2023-03-05T01:00:58.486Z,986.15
2023-03-05T01:01:58.495Z,986.14
2023-03-05T01:02:58.462Z,986.12
2023-03-05T01:03:58.502Z,986.11
2023-03-05T01:04:58.466Z,986.10
2023-03-05T01:05:58.435Z,986.10
2023-03-05T01:06:58.443Z,986.10
2023-03-05T01:07:58.417Z,986.09
2023-03-05T01:08:58.415Z,986.09
2023-03-05T01:09:58.457Z,986.08
2023-03-05T01:10:58.464Z,986.08
2023-03-05T01:11:58.398Z,986.08
2023-03-05T01:12:58.387Z,986.09
2023-03-05T01:13:58.376Z,986.08
2023-03-05T01:14:58.369Z,986.08
2023-03-05T01:15:58.448Z,986.08
2023-03-05T01:16:58.470Z,986.06
2023-03-05T01:17:58.360Z,986.04
2023-03-05T01:18:58.364Z,986.03
2023-03-05T01:19:58.355Z,986.01
2023-03-05T01:20:58.329Z,986.01
2023-03-05T01:21:58.345Z,986.01
2023-03-05T01:22:58.314Z,985.98
2023-03-05T01:23:58.307Z,986.00
2023-03-05T01:24:58.338Z,985.99
2023-03-05T01:25:58.315Z,985.94
2023-03-05T01:26:58.289Z,985.94
2023-03-05T01:27:58.309Z,985.94
2023-03-05T01:28:58.288Z,985.91
2023-03-05T01:29:58.280Z,985.89
2023-03-05T01:30:58.294Z,985.90
2023-03-05T01:31:58.301Z,985.87
2023-03-05T01:32:58.277Z,985.84
2023-03-05T01:33:58.249Z,985.86
2023-03-05T01:34:58.279Z,985.88
2023-03-05T01:35:58.291Z,985.83
2023-03-05T01:36:58.355Z,985.83
2023-03-05T01:37:58.234Z,985.81
2023-03-05T01:38:58.234Z,985.83
2023-03-05T01:39:58.219Z,985.80
2023-03-05T01:40:58.208Z,985.79
2023-03-05T01:41:58.224Z,985.79
2023-03-05T01:42:58.196Z,985.77
2023-03-05T01:43:58.217Z,985.76
2023-03-05T01:44:58.178Z,985.75
2023-03-05T01:45:58.195Z,985.71
2023-03-05T01:46:58.169Z,985.75
2023-03-05T01:47:58.279Z,985.74
2023-03-05T01:48:58.297Z,985.74
2023-03-05T01:49:58.146Z,985.75
2023-03-05T01:50:58.138Z,985.73
2023-03-05T01:51:58.144Z,985.73
2023-03-05T01:52:58.156Z,985.73
2023-03-05T01:53:58.184Z,985.73
2023-03-05T01:54:58.120Z,985.73
2023-03-05T01:55:58.105Z,985.73
2023-03-05T01:56:58.109Z,985.72
2023-03-05T01:57:58.109Z,985.71
2023-03-05T01:58:58.089Z,985.70
2023-03-05T01:59:58.609Z,985.68
2023-03-05T02:00:58.103Z,985.65
2023-03-05T02:01:58.076Z,985.65
2023-03-05T02:02:58.073Z,985.64
2023-03-05T02:03:58.079Z,985.64
2023-03-05T02:04:58.078Z,985.60
2023-03-05T02:05:58.056Z,985.60
2023-03-05T02:06:58.036Z,985.59
2023-03-05T02:07:58.038Z,985.58
2023-03-05T02:08:58.022Z,985.56
2023-03-05T02:09:58.015Z,985.57
2023-03-05T02:10:58.021Z,985.54
2023-03-05T02:11:58.001Z,985.53
2023-03-05T02:12:58.018Z,985.52
2023-03-05T02:13:57.982Z,985.52
2023-03-05T02:14:58.012Z,985.53
2023-03-05T02:15:57.977Z,985.52
2023-03-05T02:16:58.080Z,985.53
2023-03-05T02:17:57.962Z,985.53
2023-03-05T02:18:57.961Z,985.53
2023-03-05T02:19:57.975Z,985.52
2023-03-05T02:20:58.021Z,985.52
2023-03-05T02:21:57.943Z,985.53
2023-03-05T02:22:57.933Z,985.52
2023-03-05T02:23:57.931Z,985.52
2023-03-05T02:24:57.918Z,985.52
2023-03-05T02:25:57.940Z,985.51
2023-03-05T02:26:57.929Z,985.51
2023-03-05T02:27:57.903Z,985.51
2023-03-05T02:28:57.907Z,985.51
2023-03-05T02:29:57.896Z,985.51
2023-03-05T02:30:57.883Z,985.50
2023-03-05T02:31:58.120Z,985.49
2023-03-05T02:32:57.890Z,985.49
2023-03-05T02:33:57.862Z,985.49
2023-03-05T02:34:57.873Z,985.47
2023-03-05T02:35:57.880Z,985.46
2023-03-05T02:36:57.852Z,985.46
2023-03-05T02:37:57.833Z,985.45
2023-03-05T02:38:57.864Z,985.42
2023-03-05T02:39:57.853Z,985.43
2023-03-05T02:40:57.827Z,985.40
2023-03-05T02:41:57.821Z,985.43
2023-03-05T02:42:57.813Z,985.40
2023-03-05T02:43:57.805Z,985.38
2023-03-05T02:44:57.799Z,985.40
2023-03-05T02:45:58.046Z,985.40
2023-03-05T02:46:57.780Z,985.39
2023-03-05T02:47:57.778Z,985.39
2023-03-05T02:48:57.793Z,985.37
2023-03-05T02:49:57.771Z,985.36
2023-03-05T02:50:57.789Z,985.35
2023-03-05T02:51:57.857Z,985.34
2023-03-05T02:52:57.748Z,985.32
2023-03-05T02:53:57.755Z,985.31
2023-03-05T02:54:57.730Z,985.30
2023-03-05T02:55:57.748Z,985.29
2023-03-05T02:56:57.745Z,985.28
2023-03-05T02:57:57.703Z,985.31
2023-03-05T02:58:57.701Z,985.29
2023-03-05T02:59:57.747Z,985.29
2023-03-05T03:00:57.700Z,985.29
2023-03-05T03:01:57.680Z,985.30
2023-03-05T03:02:57.757Z,985.28
2023-03-05T03:03:57.688Z,985.27
2023-03-05T03:04:57.662Z,985.26
2023-03-05T03:05:57.656Z,985.24
2023-03-05T03:06:57.654Z,985.24
2023-03-05T03:07:57.643Z,985.23
2023-03-05T03:08:57.655Z,985.23
2023-03-05T03:09:57.635Z,985.21
2023-03-05T03:10:57.628Z,985.22
2023-03-05T03:11:57.624Z,985.22
2023-03-05T03:12:57.621Z,985.22
2023-03-05T03:13:57.613Z,985.20
2023-03-05T03:14:57.625Z,985.19
2023-03-05T03:15:57.601Z,985.18
2023-03-05T03:16:57.649Z,985.16
2023-03-05T03:17:57.594Z,985.14
2023-03-05T03:18:57.597Z,985.13
2023-03-05T03:19:57.593Z,985.11
2023-03-05T03:20:57.596Z,985.11
2023-03-05T03:21:57.584Z,985.10
2023-03-05T03:22:57.560Z,985.09
2023-03-05T03:23:57.553Z,985.05
2023-03-05T03:24:57.569Z,985.04
2023-03-05T03:25:57.539Z,985.02
2023-03-05T03:26:57.553Z,985.01
2023-03-05T03:27:57.532Z,984.98
2023-03-05T03:28:57.521Z,984.97
2023-03-05T03:29:57.520Z,984.96
2023-03-05T03:30:57.632Z,984.95
2023-03-05T03:31:57.564Z,984.92
2023-03-05T03:32:57.505Z,984.89
2023-03-05T03:33:57.499Z,984.88
2023-03-05T03:34:57.505Z,984.87
2023-03-05T03:35:57.523Z,984.87
2023-03-05T03:36:57.512Z,984.87
2023-03-05T03:37:57.479Z,984.86
2023-03-05T03:38:57.486Z,984.83
2023-03-05T03:39:57.465Z,984.82
2023-03-05T03:40:57.458Z,984.82
2023-03-05T03:41:57.461Z,984.82
2023-03-05T03:42:57.485Z,984.82
2023-03-05T03:43:57.456Z,984.81
2023-03-05T03:44:57.434Z,984.78
2023-03-05T03:45:57.457Z,984.76
2023-03-05T03:46:57.442Z,984.74
2023-03-05T03:47:57.419Z,984.74
2023-03-05T03:48:57.448Z,984.73
2023-03-05T03:49:57.405Z,984.72
2023-03-05T03:50:57.397Z,984.70
2023-03-05T03:51:57.511Z,984.68
2023-03-05T03:52:57.390Z,984.65
2023-03-05T03:53:57.401Z,984.63
2023-03-05T03:54:57.379Z,984.63
2023-03-05T03:55:57.367Z,984.62
2023-03-05T03:56:57.426Z,984.61
2023-03-05T03:57:57.393Z,984.60
2023-03-05T03:58:57.382Z,984.58
2023-03-05T03:59:57.379Z,984.57
2023-03-05T04:00:57.343Z,984.56
2023-03-05T04:01:57.327Z,984.54
2023-03-05T04:02:57.339Z,984.52
2023-03-05T04:03:57.363Z,984.51
2023-03-05T04:04:57.315Z,984.50
2023-03-05T04:05:57.309Z,984.49
2023-03-05T04:06:57.307Z,984.47
2023-03-05T04:07:57.298Z,984.45
2023-03-05T04:08:57.321Z,984.45
2023-03-05T04:09:57.286Z,984.45
2023-03-05T04:10:57.284Z,984.45
2023-03-05T04:11:57.277Z,984.45
2023-03-05T04:12:57.266Z,984.44
2023-03-05T04:13:57.275Z,984.43
2023-03-05T04:14:57.263Z,984.42
2023-03-05T04:15:57.293Z,984.40
2023-03-05T04:16:57.244Z,984.38
2023-03-05T04:17:57.243Z,984.37
2023-03-05T04:18:57.238Z,984.36
2023-03-05T04:19:57.225Z,984.35
2023-03-05T04:20:57.236Z,984.34
2023-03-05T04:21:57.221Z,984.33
2023-03-05T04:22:57.209Z,984.33
2023-03-05T04:23:57.196Z,984.33
2023-03-05T04:24:57.213Z,984.32
2023-03-05T04:25:57.199Z,984.32
2023-03-05T04:26:57.178Z,984.30
2023-03-05T04:27:57.174Z,984.26
2023-03-05T04:28:57.187Z,984.24
2023-03-05T04:29:57.154Z,984.24
2023-03-05T04:30:57.176Z,984.23
2023-03-05T04:31:57.179Z,984.22
2023-03-05T04:32:57.149Z,984.22
2023-03-05T04:33:57.139Z,984.22
2023-03-05T04:34:57.157Z,984.21
2023-03-05T04:35:57.199Z,984.21
2023-03-05T04:36:57.130Z,984.21
2023-03-05T04:37:57.113Z,984.19
2023-03-05T04:38:57.116Z,984.15
2023-03-05T04:39:57.098Z,984.10
2023-03-05T04:40:57.138Z,984.06
2023-03-05T04:41:57.092Z,984.07
2023-03-05T04:42:57.083Z,984.07
2023-03-05T04:43:57.068Z,984.08
2023-03-05T04:44:57.063Z,984.08
2023-03-05T04:45:57.063Z,984.06
2023-03-05T04:46:57.077Z,984.04
2023-03-05T04:47:57.040Z,984.05
2023-03-05T04:48:57.039Z,984.05
2023-03-05T04:49:57.031Z,984.05
2023-03-05T04:50:57.028Z,984.03
2023-03-05T04:51:57.041Z,984.01
2023-03-05T04:52:57.023Z,984.02
2023-03-05T04:53:57.005Z,984.02
2023-03-05T04:54:57.003Z,984.01
2023-03-05T04:55:56.997Z,984.00
2023-03-05T04:56:56.991Z,983.98
2023-03-05T04:57:57.000Z,983.96
2023-03-05T04:58:56.985Z,983.94
2023-03-05T04:59:56.989Z,983.96
2023-03-05T05:00:56.967Z,983.96
2023-03-05T05:01:56.972Z,983.94
2023-03-05T05:02:57.043Z,983.93
2023-03-05T05:03:56.938Z,983.91
2023-03-05T05:04:56.946Z,983.91
2023-03-05T05:05:56.947Z,983.91
2023-03-05T05:06:56.923Z,983.90
2023-03-05T05:07:56.927Z,983.89
2023-03-05T05:08:56.911Z,983.88
2023-03-05T05:09:56.926Z,983.87
2023-03-05T05:10:56.901Z,983.87
2023-03-05T05:11:56.889Z,983.87
2023-03-05T05:12:56.889Z,983.86
2023-03-05T05:13:56.878Z,983.85
2023-03-05T05:14:56.866Z,983.85
2023-03-05T05:15:56.897Z,983.83
2023-03-05T05:16:56.862Z,983.82
2023-03-05T05:17:56.855Z,983.82
2023-03-05T05:18:56.842Z,983.81
2023-03-05T05:19:56.846Z,983.81
2023-03-05T05:20:56.851Z,983.81
2023-03-05T05:21:56.825Z,983.82
2023-03-05T05:22:56.836Z,983.82
2023-03-05T05:23:56.809Z,983.82
2023-03-05T05:24:56.803Z,983.82
2023-03-05T05:25:56.816Z,983.82
2023-03-05T05:26:56.787Z,983.83
2023-03-05T05:27:56.784Z,983.84
2023-03-05T05:28:56.777Z,983.84
2023-03-05T05:29:56.764Z,983.83
2023-03-05T05:30:56.772Z,983.83
2023-03-05T05:31:56.768Z,983.83
2023-03-05T05:32:56.748Z,983.84
2023-03-05T05:33:56.741Z,983.85
2023-03-05T05:34:56.745Z,983.85
2023-03-05T05:35:56.772Z,983.86
2023-03-05T05:36:56.741Z,983.86
2023-03-05T05:37:56.740Z,983.86
2023-03-05T05:38:56.721Z,983.86
2023-03-05T05:39:56.718Z,983.86
2023-03-05T05:40:56.709Z,983.84
2023-03-05T05:41:56.710Z,983.81
2023-03-05T05:42:56.694Z,983.80
2023-03-05T05:43:56.701Z,983.81
2023-03-05T05:44:56.676Z,983.83
2023-03-05T05:45:56.783Z,983.84
2023-03-05T05:46:56.672Z,983.85
2023-03-05T05:47:56.660Z,983.84
2023-03-05T05:48:56.685Z,983.84
2023-03-05T05:49:56.654Z,983.83
2023-03-05T05:50:56.649Z,983.84
2023-03-05T05:51:56.657Z,983.84
2023-03-05T05:52:56.633Z,983.83
2023-03-05T05:53:56.626Z,983.83
2023-03-05T05:54:56.622Z,983.83
2023-03-05T05:55:56.618Z,983.82
2023-03-05T05:56:56.629Z,983.82
2023-03-05T05:57:56.608Z,983.80
2023-03-05T05:58:56.603Z,983.77
2023-03-05T05:59:56.599Z,983.75
2023-03-05T06:00:56.593Z,983.77
2023-03-05T06:01:56.642Z,983.78
2023-03-05T06:02:56.614Z,983.78
2023-03-05T06:03:56.564Z,983.78
2023-03-05T06:04:58.189Z,983.79
2023-03-05T06:05:56.570Z,983.79
2023-03-05T06:06:56.555Z,983.80
2023-03-05T06:07:56.544Z,983.82
2023-03-05T06:08:56.537Z,983.83
2023-03-05T06:09:56.529Z,983.80
2023-03-05T06:10:56.545Z,983.80
2023-03-05T06:11:56.521Z,983.78
2023-03-05T06:12:56.514Z,983.80
2023-03-05T06:13:56.558Z,983.82
2023-03-05T06:15:03.521Z,983.81
2023-03-05T06:15:56.506Z,983.80
2023-03-05T06:16:56.570Z,983.79
2023-03-05T06:17:56.481Z,983.78
2023-03-05T06:18:56.498Z,983.79
2023-03-05T06:19:56.474Z,983.78
2023-03-05T06:20:56.467Z,983.77
2023-03-05T06:21:56.457Z,983.76
2023-03-05T06:22:56.457Z,983.77
2023-03-05T06:23:56.445Z,983.76
2023-03-05T06:24:56.477Z,983.76
2023-03-05T06:25:56.433Z,983.76
2023-03-05T06:26:56.439Z,983.77
2023-03-05T06:27:56.422Z,983.77
2023-03-05T06:28:56.420Z,983.79
2023-03-05T06:29:56.405Z,983.78
2023-03-05T06:30:56.450Z,983.77
2023-03-05T06:31:56.401Z,983.78
2023-03-05T06:32:56.382Z,983.78
2023-03-05T06:33:56.404Z,983.77
2023-03-05T06:34:56.388Z,983.77
2023-03-05T06:35:56.394Z,983.77
2023-03-05T06:36:56.369Z,983.78
2023-03-05T06:37:56.353Z,983.80
2023-03-05T06:38:56.371Z,983.79
2023-03-05T06:39:56.357Z,983.79
2023-03-05T06:40:56.341Z,983.80
2023-03-05T06:41:56.347Z,983.79
2023-03-05T06:42:56.327Z,983.80
2023-03-05T06:43:56.342Z,983.78
2023-03-05T06:44:56.311Z,983.78
2023-03-05T06:45:56.345Z,983.78
2023-03-05T06:46:56.301Z,983.80
2023-03-05T06:47:56.292Z,983.80
2023-03-05T06:48:56.294Z,983.78
2023-03-05T06:49:56.303Z,983.77
2023-03-05T06:50:56.275Z,983.77
2023-03-05T06:51:56.284Z,983.76
2023-03-05T06:52:56.272Z,983.76
2023-03-05T06:53:56.257Z,983.77
2023-03-05T06:54:56.249Z,983.75
2023-03-05T06:55:56.239Z,983.74
2023-03-05T06:56:56.258Z,983.74
2023-03-05T06:57:56.230Z,983.74
2023-03-05T06:58:56.223Z,983.72
2023-03-05T06:59:56.226Z,983.71
2023-03-05T07:00:56.295Z,983.71
2023-03-05T07:01:56.204Z,983.71
2023-03-05T07:02:56.216Z,983.71
2023-03-05T07:03:56.193Z,983.70
2023-03-05T07:04:56.200Z,983.69
2023-03-05T07:05:56.179Z,983.64
2023-03-05T07:06:56.184Z,983.63
2023-03-05T07:07:56.191Z,983.62
2023-03-05T07:08:56.161Z,983.61
2023-03-05T07:09:56.152Z,983.60
2023-03-05T07:10:56.142Z,983.59
2023-03-05T07:11:56.142Z,983.58
2023-03-05T07:12:56.185Z,983.56
2023-03-05T07:13:56.131Z,983.55
2023-03-05T07:14:56.125Z,983.55
2023-03-05T07:15:56.204Z,983.55
2023-03-05T07:16:56.120Z,983.56
2023-03-05T07:17:56.130Z,983.56
2023-03-05T07:18:56.113Z,983.55
2023-03-05T07:19:56.100Z,983.55
2023-03-05T07:20:56.088Z,983.53
2023-03-05T07:21:56.081Z,983.53
2023-03-05T07:22:56.106Z,983.53
2023-03-05T07:23:56.090Z,983.53
2023-03-05T07:24:56.084Z,983.54
2023-03-05T07:25:56.058Z,983.55
2023-03-05T07:26:56.056Z,983.55
2023-03-05T07:27:56.066Z,983.56
2023-03-05T07:28:56.043Z,983.55
2023-03-05T07:29:56.051Z,983.53
2023-03-05T07:30:56.118Z,983.54
2023-03-05T07:31:56.028Z,983.52
2023-03-05T07:32:56.027Z,983.52
2023-03-05T07:33:56.033Z,983.52
2023-03-05T07:34:56.009Z,983.53
2023-03-05T07:35:56.051Z,983.54
2023-03-05T07:36:55.998Z,983.53
2023-03-05T07:37:55.993Z,983.52
2023-03-05T07:38:56.012Z,983.53
2023-03-05T07:39:55.971Z,983.53
2023-03-05T07:40:55.993Z,983.52
2023-03-05T07:41:55.960Z,983.54
2023-03-05T07:42:55.981Z,983.53
2023-03-05T07:43:55.950Z,983.50
2023-03-05T07:44:55.965Z,983.50
2023-03-05T07:45:55.962Z,983.51
2023-03-05T07:46:55.944Z,983.50
2023-03-05T07:47:55.928Z,983.53
2023-03-05T07:48:55.937Z,983.54
2023-03-05T07:49:55.930Z,983.49
2023-03-05T07:50:55.891Z,983.52
2023-03-05T07:51:55.894Z,983.49
2023-03-05T07:52:55.915Z,983.52
2023-03-05T07:53:55.886Z,983.48
2023-03-05T07:54:55.879Z,983.50
2023-03-05T07:55:55.880Z,983.48
2023-03-05T07:56:55.894Z,983.48
2023-03-05T07:57:55.852Z,983.51
2023-03-05T07:58:55.857Z,983.54
2023-03-05T07:59:55.859Z,983.52
2023-03-05T08:00:55.839Z,983.52
2023-03-05T08:01:55.843Z,983.53
2023-03-05T08:02:55.824Z,983.53
2023-03-05T08:03:55.833Z,983.53
2023-03-05T08:04:55.813Z,983.55
2023-03-05T08:05:55.805Z,983.52
2023-03-05T08:06:55.800Z,983.52
2023-03-05T08:07:55.800Z,983.50
2023-03-05T08:08:55.832Z,983.49
2023-03-05T08:09:55.808Z,983.49
2023-03-05T08:10:55.797Z,983.48
2023-03-05T08:11:55.767Z,983.46
2023-03-05T08:12:55.767Z,983.47
2023-03-05T08:13:55.757Z,983.45
2023-03-05T08:14:55.771Z,983.44
2023-03-05T08:15:55.790Z,983.48
2023-03-05T08:16:55.749Z,983.44
2023-03-05T08:17:55.741Z,983.44
2023-03-05T08:18:55.741Z,983.45
2023-03-05T08:19:55.754Z,983.47
2023-03-05T08:20:55.740Z,983.44
2023-03-05T08:21:56.497Z,983.43
2023-03-05T08:22:55.704Z,983.39
2023-03-05T08:23:55.696Z,983.41
2023-03-05T08:24:55.707Z,983.40
2023-03-05T08:25:55.692Z,983.36
2023-03-05T08:26:55.693Z,983.36
2023-03-05T08:27:55.691Z,983.37
2023-03-05T08:28:55.664Z,983.36
2023-03-05T08:29:55.654Z,983.36
2023-03-05T08:30:55.679Z,983.36
2023-03-05T08:31:55.668Z,983.33
2023-03-05T08:32:55.641Z,983.34
2023-03-05T08:33:55.620Z,983.29
2023-03-05T08:34:55.621Z,983.31
2023-03-05T08:35:55.730Z,983.29
2023-03-05T08:36:55.608Z,983.32
2023-03-05T08:37:55.617Z,983.30
2023-03-05T08:38:55.619Z,983.34
2023-03-05T08:39:55.588Z,983.30
2023-03-05T08:40:55.583Z,983.30
2023-03-05T08:41:55.638Z,983.32
2023-03-05T08:42:55.589Z,983.33
2023-03-05T08:43:55.564Z,983.29
2023-03-05T08:44:55.553Z,983.29
2023-03-05T08:45:55.568Z,983.24
2023-03-05T08:46:55.571Z,983.25
2023-03-05T08:47:55.534Z,983.25
2023-03-05T08:48:55.556Z,983.24
2023-03-05T08:49:55.575Z,983.21
2023-03-05T08:50:55.511Z,983.22
2023-03-05T08:51:55.509Z,983.17
2023-03-05T08:52:55.511Z,983.17
2023-03-05T08:53:55.492Z,983.16
2023-03-05T08:54:55.516Z,983.14
2023-03-05T08:55:55.504Z,983.14
2023-03-05T08:56:55.484Z,983.10
2023-03-05T08:57:55.473Z,983.09
2023-03-05T08:58:55.461Z,983.10
2023-03-05T08:59:55.468Z,983.06
2023-03-05T09:00:55.464Z,983.06
2023-03-05T09:01:55.501Z,983.02
2023-03-05T09:02:55.531Z,983.02
2023-03-05T09:03:55.448Z,983.02
2023-03-05T09:04:55.445Z,983.00
2023-03-05T09:05:55.412Z,982.99
2023-03-05T09:06:55.417Z,982.94
2023-03-05T09:07:55.399Z,982.97
2023-03-05T09:08:55.400Z,982.96
2023-03-05T09:09:55.387Z,982.94
2023-03-05T09:10:55.402Z,982.91
2023-03-05T09:11:55.376Z,982.94
2023-03-05T09:12:55.386Z,982.90
2023-03-05T09:13:55.363Z,982.88
2023-03-05T09:14:55.378Z,982.85
2023-03-05T09:15:55.384Z,982.83
2023-03-05T09:16:55.379Z,982.80
2023-03-05T09:17:55.347Z,982.81
2023-03-05T09:18:55.341Z,982.81
2023-03-05T09:19:55.331Z,982.81
2023-03-05T09:20:55.346Z,982.81
2023-03-05T09:21:56.964Z,982.80
2023-03-05T09:22:55.327Z,982.78
2023-03-05T09:23:55.310Z,982.79
2023-03-05T09:24:55.311Z,982.81
2023-03-05T09:25:55.316Z,982.82
2023-03-05T09:26:55.298Z,982.81
2023-03-05T09:27:55.288Z,982.81
2023-03-05T09:28:55.276Z,982.79
2023-03-05T09:29:55.294Z,982.78
2023-03-05T09:30:55.292Z,982.82
2023-03-05T09:31:55.332Z,982.78
2023-03-05T09:32:55.274Z,982.77
2023-03-05T09:33:55.264Z,982.80
2023-03-05T09:34:55.259Z,982.73
2023-03-05T09:35:55.291Z,982.71
2023-03-05T09:36:55.229Z,982.68
2023-03-05T09:37:55.218Z,982.73
2023-03-05T09:38:55.221Z,982.72
2023-03-05T09:39:55.223Z,982.69
2023-03-05T09:40:55.225Z,982.67
2023-03-05T09:41:55.235Z,982.63
2023-03-05T09:42:55.201Z,982.63
2023-03-05T09:43:55.191Z,982.62
2023-03-05T09:44:55.235Z,982.63
2023-03-05T09:45:55.221Z,982.57
2023-03-05T09:46:55.182Z,982.57
2023-03-05T09:47:55.161Z,982.59
2023-03-05T09:48:55.166Z,982.54
2023-03-05T09:49:55.159Z,982.57
2023-03-05T09:50:55.184Z,982.56
2023-03-05T09:51:55.150Z,982.55
2023-03-05T09:52:55.132Z,982.54
2023-03-05T09:53:55.143Z,982.58
2023-03-05T09:54:55.127Z,982.59
2023-03-05T09:55:55.136Z,982.59
2023-03-05T09:56:55.115Z,982.59
2023-03-05T09:57:55.145Z,982.58
2023-03-05T09:58:56.226Z,982.59
2023-03-05T09:59:55.114Z,982.56
2023-03-05T10:00:55.084Z,982.60
2023-03-05T10:01:55.091Z,982.57
2023-03-05T10:02:55.092Z,982.53
2023-03-05T10:03:55.099Z,982.54
2023-03-05T10:04:55.078Z,982.56
2023-03-05T10:05:55.065Z,982.56
2023-03-05T10:06:55.061Z,982.56
2023-03-05T10:07:55.063Z,982.55
2023-03-05T10:08:55.046Z,982.61
2023-03-05T10:09:55.047Z,982.51
2023-03-05T10:10:55.030Z,982.49
2023-03-05T10:11:55.061Z,982.49
2023-03-05T10:12:55.013Z,982.44
2023-03-05T10:13:55.027Z,982.43
2023-03-05T10:14:55.014Z,982.46
2023-03-05T10:15:54.996Z,982.43
2023-03-05T10:16:55.042Z,982.43
2023-03-05T10:17:54.999Z,982.40
2023-03-05T10:18:54.980Z,982.41
2023-03-05T10:19:54.974Z,982.36
2023-03-05T10:20:54.959Z,982.37
2023-03-05T10:21:54.962Z,982.34
2023-03-05T10:22:54.945Z,982.35
2023-03-05T10:23:54.937Z,982.36
2023-03-05T10:24:54.959Z,982.28
2023-03-05T10:25:54.967Z,982.26
2023-03-05T10:26:54.983Z,982.28
2023-03-05T10:27:54.912Z,982.25
2023-03-05T10:28:54.907Z,982.22
2023-03-05T10:29:54.917Z,982.25
2023-03-05T10:30:54.926Z,982.21
2023-03-05T10:31:54.917Z,982.19
2023-03-05T10:32:54.882Z,982.17
2023-03-05T10:33:54.894Z,982.19
2023-03-05T10:34:54.879Z,982.20
2023-03-05T10:35:54.971Z,982.21
2023-03-05T10:36:56.688Z,982.20
2023-03-05T10:37:54.842Z,982.19
2023-03-05T10:38:54.849Z,982.19
2023-03-05T10:39:54.842Z,982.17
2023-03-05T10:40:54.829Z,982.18
2023-03-05T10:41:54.835Z,982.15
2023-03-05T10:42:54.835Z,982.20
2023-03-05T10:43:54.861Z,982.13
2023-03-05T10:44:54.836Z,982.22
2023-03-05T10:45:54.836Z,982.16
2023-03-05T10:46:55.995Z,982.14
2023-03-05T10:47:54.789Z,982.15
2023-03-05T10:48:54.804Z,982.14
2023-03-05T10:49:54.817Z,982.11
2023-03-05T10:50:54.783Z,982.10
2023-03-05T10:51:54.753Z,982.09
2023-03-05T10:52:54.758Z,982.08
2023-03-05T10:53:54.747Z,982.07
2023-03-05T10:54:54.752Z,982.08
2023-03-05T10:55:54.799Z,982.05
2023-03-05T10:56:54.739Z,982.05
2023-03-05T10:57:54.730Z,982.00
2023-03-05T10:58:54.715Z,982.00
2023-03-05T10:59:54.724Z,981.98
2023-03-05T11:00:54.782Z,981.98
2023-03-05T11:01:54.753Z,981.98
2023-03-05T11:02:54.805Z,982.00
2023-03-05T11:03:54.708Z,981.98
2023-03-05T11:04:54.752Z,981.98
2023-03-05T11:05:54.678Z,981.98
2023-03-05T11:06:54.668Z,981.97
2023-03-05T11:07:54.659Z,981.98
2023-03-05T11:08:54.660Z,981.94
2023-03-05T11:09:54.648Z,981.95
2023-03-05T11:10:54.657Z,981.92
2023-03-05T11:11:54.653Z,981.90
2023-03-05T11:12:54.653Z,981.91
2023-03-05T11:13:54.624Z,981.89
2023-03-05T11:14:54.620Z,981.90
2023-03-05T11:15:54.636Z,981.88
2023-03-05T11:16:54.619Z,981.86
2023-03-05T11:17:54.596Z,981.83
2023-03-05T11:18:54.599Z,981.80
2023-03-05T11:19:54.581Z,981.79
2023-03-05T11:20:54.593Z,981.78
2023-03-05T11:21:54.604Z,981.77
2023-03-05T11:22:54.572Z,981.73
2023-03-05T11:23:54.560Z,981.75
2023-03-05T11:24:54.557Z,981.75
2023-03-05T11:25:54.548Z,981.78
2023-03-05T11:26:54.541Z,981.76
2023-03-05T11:27:54.926Z,981.76
2023-03-05T11:28:54.537Z,981.74
2023-03-05T11:29:54.525Z,981.73
2023-03-05T11:30:54.556Z,981.69
2023-03-05T11:31:54.529Z,981.66
2023-03-05T11:32:54.513Z,981.64
2023-03-05T11:33:54.520Z,981.61
2023-03-05T11:34:54.497Z,981.57
2023-03-05T11:35:54.495Z,981.57
2023-03-05T11:36:54.499Z,981.60
2023-03-05T11:37:54.524Z,981.57
2023-03-05T11:38:54.488Z,981.57
2023-03-05T11:39:54.504Z,981.56
2023-03-05T11:40:54.467Z,981.55
2023-03-05T11:41:54.498Z,981.56
2023-03-05T11:42:54.473Z,981.54
2023-03-05T11:43:54.452Z,981.53
2023-03-05T11:44:54.459Z,981.54
2023-03-05T11:45:54.608Z,981.50
2023-03-05T11:46:54.428Z,981.43
2023-03-05T11:47:54.426Z,981.47
2023-03-05T11:48:54.459Z,981.51
2023-03-05T11:49:54.417Z,981.45
2023-03-05T11:50:54.414Z,981.43
2023-03-05T11:51:54.468Z,981.44
2023-03-05T11:52:54.389Z,981.41
2023-03-05T11:53:54.391Z,981.39
2023-03-05T11:54:54.389Z,981.38
2023-03-05T11:55:54.381Z,981.37
2023-03-05T11:56:54.375Z,981.35
2023-03-05T11:57:54.432Z,981.33
2023-03-05T11:58:54.381Z,981.33
2023-03-05T11:59:54.353Z,981.34
2023-03-05T12:00:54.384Z,981.33
2023-03-05T12:01:54.369Z,981.32
2023-03-05T12:02:54.405Z,981.32
2023-03-05T12:03:54.361Z,981.30
2023-03-05T12:04:54.327Z,981.31
2023-03-05T12:05:54.317Z,981.30
2023-03-05T12:06:54.348Z,981.30
2023-03-05T12:07:54.300Z,981.28
2023-03-05T12:08:54.314Z,981.31
2023-03-05T12:09:54.357Z,981.30
2023-03-05T12:10:54.291Z,981.23
2023-03-05T12:11:54.308Z,981.32
2023-03-05T12:12:54.289Z,981.28
2023-03-05T12:13:54.309Z,981.30
2023-03-05T12:14:54.274Z,981.34
2023-03-05T12:15:54.273Z,981.33
2023-03-05T12:16:54.253Z,981.39
2023-03-05T12:17:54.249Z,981.35
2023-03-05T12:18:54.259Z,981.35
2023-03-05T12:19:54.257Z,981.33
2023-03-05T12:20:54.293Z,981.31
2023-03-05T12:21:54.232Z,981.27
2023-03-05T12:22:54.234Z,981.26
2023-03-05T12:23:54.208Z,981.26
2023-03-05T12:24:54.224Z,981.22
2023-03-05T12:25:54.200Z,981.25
2023-03-05T12:26:54.238Z,981.20
2023-03-05T12:27:54.202Z,981.21
2023-03-05T12:28:54.178Z,981.17